sensor_id;sensor_type;location;lat;lon;timestamp;pressure;altitude;pressure_sealevel;temperature;humidity
39443;BME280;25147;52.142;9.960;2024-03-02T00:00:19;99427.28;;;8.03;100.00
39443;BME280;25147;52.142;9.960;2024-03-02T00:02:48;99380.13;;;7.73;100.00
39443;BME280;25147;52.142;9.960;2024-03-02T00:05:16;99434.25;;;8.01;100.00
39443;BME280;25147;52.142;9.960;2024-03-02T00:07:44;99409.25;;;7.94;100.00
39443;BME280;25147;52.142;9.960;2024-03-02T00:10:16;99413.66;;;7.90;100.00
39443;BME280;25147;52.142;9.960;2024-03-02T00:12:47;99429.16;;;7.96;100.00
39443;BME280;25147;52.142;9.960;2024-03-02T00:15:34;99420.50;;;7.96;100.00
39443;BME280;25147;52.142;9.960;2024-03-02T00:18:04;99381.06;;;7.71;100.00
39443;BME280;25147;52.142;9.960;2024-03-02T00:20:31;99406.78;;;7.88;100.00
39443;BME280;25147;52.142;9.960;2024-03-02T00:23:03;99376.06;;;7.61;100.00
39443;BME280;25147;52.142;9.960;2024-03-02T00:25:38;99392.06;;;7.83;100.00
39443;BME280;25147;52.142;9.960;2024-03-02T00:28:13;99333.03;;;7.42;100.00
39443;BME280;25147;52.142;9.960;2024-03-02T00:30:58;99377.66;;;7.67;100.00
39443;BME280;25147;52.142;9.960;2024-03-02T00:33:27;99392.19;;;7.77;100.00
39443;BME280;25147;52.142;9.960;2024-03-02T00:35:54;99414.34;;;7.98;100.00
39443;BME280;25147;52.142;9.960;2024-03-02T00:38:21;99398.03;;;7.89;100.00
39443;BME280;25147;52.142;9.960;2024-03-02T00:40:48;99425.56;;;8.02;100.00
39443;BME280;25147;52.142;9.960;2024-03-02T00:43:47;99424.66;;;8.03;100.00
39443;BME280;25147;52.142;9.960;2024-03-02T00:46:19;99378.28;;;7.78;100.00
39443;BME280;25147;52.142;9.960;2024-03-02T00:48:51;99423.97;;;7.95;100.00
39443;BME280;25147;52.142;9.960;2024-03-02T00:51:21;99388.72;;;7.78;100.00
39443;BME280;25147;52.142;9.960;2024-03-02T00:53:49;99406.81;;;7.84;100.00
39443;BME280;25147;52.142;9.960;2024-03-02T00:56:16;99431.75;;;7.96;100.00
39443;BME280;25147;52.142;9.960;2024-03-02T00:58:43;99417.28;;;7.81;100.00
39443;BME280;25147;52.142;9.960;2024-03-02T01:01:10;99408.72;;;7.78;100.00
39443;BME280;25147;52.142;9.960;2024-03-02T01:03:38;99394.28;;;7.61;100.00
39443;BME280;25147;52.142;9.960;2024-03-02T01:06:05;99443.97;;;7.94;100.00
39443;BME280;25147;52.142;9.960;2024-03-02T01:08:33;99437.91;;;7.94;100.00
39443;BME280;25147;52.142;9.960;2024-03-02T01:11:00;99440.47;;;7.95;100.00
39443;BME280;25147;52.142;9.960;2024-03-02T01:13:27;99379.78;;;7.48;100.00
39443;BME280;25147;52.142;9.960;2024-03-02T01:15:53;99443.94;;;7.96;100.00
39443;BME280;25147;52.142;9.960;2024-03-02T01:18:20;99454.38;;;7.96;100.00
39443;BME280;25147;52.142;9.960;2024-03-02T01:20:49;99449.16;;;7.96;100.00
39443;BME280;25147;52.142;9.960;2024-03-02T01:23:18;99443.28;;;7.86;100.00
39443;BME280;25147;52.142;9.960;2024-03-02T01:25:46;99420.81;;;7.79;100.00
39443;BME280;25147;52.142;9.960;2024-03-02T01:28:12;99392.56;;;7.60;100.00
39443;BME280;25147;52.142;9.960;2024-03-02T01:30:39;99425.09;;;7.83;100.00
39443;BME280;25147;52.142;9.960;2024-03-02T01:33:06;99440.47;;;7.95;100.00
39443;BME280;25147;52.142;9.960;2024-03-02T01:35:33;99434.53;;;7.89;100.00
39443;BME280;25147;52.142;9.960;2024-03-02T01:38:01;99416.44;;;7.81;100.00
39443;BME280;25147;52.142;9.960;2024-03-02T01:40:29;99364.16;;;7.48;100.00
39443;BME280;25147;52.142;9.960;2024-03-02T01:42:55;99440.53;;;7.94;100.00
39443;BME280;25147;52.142;9.960;2024-03-02T01:45:23;99438.75;;;7.94;100.00
39443;BME280;25147;52.142;9.960;2024-03-02T01:47:50;99429.47;;;7.81;100.00
39443;BME280;25147;52.142;9.960;2024-03-02T01:50:25;99439.59;;;7.96;100.00
39443;BME280;25147;52.142;9.960;2024-03-02T01:52:52;99405.28;;;7.76;100.00
39443;BME280;25147;52.142;9.960;2024-03-02T01:55:21;99422.56;;;7.80;100.00
39443;BME280;25147;52.142;9.960;2024-03-02T01:57:48;99427.69;;;7.83;100.00
39443;BME280;25147;52.142;9.960;2024-03-02T02:00:16;99420.81;;;7.79;100.00
39443;BME280;25147;52.142;9.960;2024-03-02T02:02:43;99400.97;;;7.73;100.00
39443;BME280;25147;52.142;9.960;2024-03-02T02:05:10;99420.72;;;7.83;100.00
39443;BME280;25147;52.142;9.960;2024-03-02T02:07:37;99410.44;;;7.77;100.00
39443;BME280;25147;52.142;9.960;2024-03-02T02:10:05;99424.22;;;7.82;100.00
39443;BME280;25147;52.142;9.960;2024-03-02T02:12:33;99433.69;;;7.88;100.00
39443;BME280;25147;52.142;9.960;2024-03-02T02:15:00;99426.72;;;7.87;100.00
39443;BME280;25147;52.142;9.960;2024-03-02T02:17:27;99388.16;;;7.64;100.00
39443;BME280;25147;52.142;9.960;2024-03-02T02:19:54;99405.28;;;7.76;100.00
39443;BME280;25147;52.142;9.960;2024-03-02T02:22:22;99413.84;;;7.81;100.00
39443;BME280;25147;52.142;9.960;2024-03-02T02:24:48;99389.84;;;7.65;100.00
39443;BME280;25147;52.142;9.960;2024-03-02T02:27:15;99395.13;;;7.62;100.00
39443;BME280;25147;52.142;9.960;2024-03-02T02:29:42;99408.03;;;7.68;100.00
39443;BME280;25147;52.142;9.960;2024-03-02T02:32:09;99413.97;;;7.75;100.00
39443;BME280;25147;52.142;9.960;2024-03-02T02:34:36;99375.38;;;7.52;100.00
39443;BME280;25147;52.142;9.960;2024-03-02T02:37:02;99384.00;;;7.55;100.00
39443;BME280;25147;52.142;9.960;2024-03-02T02:39:31;99402.94;;;7.62;100.00
39443;BME280;25147;52.142;9.960;2024-03-02T02:41:57;99388.28;;;7.58;100.00
39443;BME280;25147;52.142;9.960;2024-03-02T02:44:26;99320.63;;;7.13;100.00
39443;BME280;25147;52.142;9.960;2024-03-02T02:46:53;99379.03;;;7.43;100.00
39443;BME280;25147;52.142;9.960;2024-03-02T02:49:20;99403.78;;;7.64;100.00
39443;BME280;25147;52.142;9.960;2024-03-02T02:51:47;99413.38;;;7.62;100.00
39443;BME280;25147;52.142;9.960;2024-03-02T02:54:14;99382.47;;;7.45;100.00
39443;BME280;25147;52.142;9.960;2024-03-02T02:56:42;99393.59;;;7.53;100.00
39443;BME280;25147;52.142;9.960;2024-03-02T02:59:09;99356.63;;;7.34;100.00
39443;BME280;25147;52.142;9.960;2024-03-02T03:01:35;99357.41;;;7.39;100.00
39443;BME280;25147;52.142;9.960;2024-03-02T03:04:02;99357.53;;;7.33;100.00
39443;BME280;25147;52.142;9.960;2024-03-02T03:06:29;99315.47;;;7.10;100.00
39443;BME280;25147;52.142;9.960;2024-03-02T03:08:56;99383.34;;;7.44;100.00
39443;BME280;25147;52.142;9.960;2024-03-02T03:11:23;99371.34;;;7.37;100.00
39443;BME280;25147;52.142;9.960;2024-03-02T03:13:53;99365.38;;;7.30;100.00
39443;BME280;25147;52.142;9.960;2024-03-02T03:16:20;99371.22;;;7.43;100.00
39443;BME280;25147;52.142;9.960;2024-03-02T03:18:47;99343.81;;;7.25;100.00
39443;BME280;25147;52.142;9.960;2024-03-02T03:21:17;99395.38;;;7.51;100.00
39443;BME280;25147;52.142;9.960;2024-03-02T03:23:43;99367.72;;;7.44;100.00
39443;BME280;25147;52.142;9.960;2024-03-02T03:26:10;99373.84;;;7.41;100.00
39443;BME280;25147;52.142;9.960;2024-03-02T03:28:37;99400.59;;;7.50;100.00
39443;BME280;25147;52.142;9.960;2024-03-02T03:31:05;99364.44;;;7.34;100.00
39443;BME280;25147;52.142;9.960;2024-03-02T03:33:32;99359.28;;;7.33;100.00
39443;BME280;25147;52.142;9.960;2024-03-02T03:36:00;99386.88;;;7.41;100.00
39443;BME280;25147;52.142;9.960;2024-03-02T03:38:28;99376.50;;;7.38;100.00
39443;BME280;25147;52.142;9.960;2024-03-02T03:40:55;99349.03;;;7.25;100.00
39443;BME280;25147;52.142;9.960;2024-03-02T03:43:22;99367.88;;;7.36;100.00
39443;BME280;25147;52.142;9.960;2024-03-02T03:45:49;99377.38;;;7.39;100.00
39443;BME280;25147;52.142;9.960;2024-03-02T03:48:17;99281.31;;;6.81;100.00
39443;BME280;25147;52.142;9.960;2024-03-02T03:50:44;99345.63;;;7.21;100.00
39443;BME280;25147;52.142;9.960;2024-03-02T03:53:11;99360.31;;;7.24;100.00
39443;BME280;25147;52.142;9.960;2024-03-02T03:55:37;99337.16;;;7.10;100.00
39443;BME280;25147;52.142;9.960;2024-03-02T03:58:04;99348.22;;;7.21;100.00
39443;BME280;25147;52.142;9.960;2024-03-02T04:00:31;99359.31;;;7.31;100.00
39443;BME280;25147;52.142;9.960;2024-03-02T04:02:58;99333.53;;;7.19;100.00
39443;BME280;25147;52.142;9.960;2024-03-02T04:05:26;99318.16;;;7.07;100.00
39443;BME280;25147;52.142;9.960;2024-03-02T04:07:53;99319.03;;;7.06;100.00
39443;BME280;25147;52.142;9.960;2024-03-02T04:10:19;99370.56;;;7.32;100.00
39443;BME280;25147;52.142;9.960;2024-03-02T04:12:46;99313.84;;;7.04;100.00
39443;BME280;25147;52.142;9.960;2024-03-02T04:15:13;99293.19;;;6.96;100.00
39443;BME280;25147;52.142;9.960;2024-03-02T04:17:40;99371.25;;;7.41;100.00
39443;BME280;25147;52.142;9.960;2024-03-02T04:20:07;99363.47;;;7.40;100.00
39443;BME280;25147;52.142;9.960;2024-03-02T04:22:35;99317.16;;;7.12;100.00
39443;BME280;25147;52.142;9.960;2024-03-02T04:25:03;99349.75;;;7.32;100.00
39443;BME280;25147;52.142;9.960;2024-03-02T04:27:30;99366.06;;;7.40;100.00
39443;BME280;25147;52.142;9.960;2024-03-02T04:29:58;99374.72;;;7.40;100.00
39443;BME280;25147;52.142;9.960;2024-03-02T04:32:25;99381.66;;;7.41;100.00
39443;BME280;25147;52.142;9.960;2024-03-02T04:34:52;99383.44;;;7.41;100.00
39443;BME280;25147;52.142;9.960;2024-03-02T04:37:19;99338.78;;;7.16;100.00
39443;BME280;25147;52.142;9.960;2024-03-02T04:39:47;99369.84;;;7.25;100.00
39443;BME280;25147;52.142;9.960;2024-03-02T04:42:14;99360.38;;;7.21;100.00
39443;BME280;25147;52.142;9.960;2024-03-02T04:44:41;99339.75;;;7.10;100.00
39443;BME280;25147;52.142;9.960;2024-03-02T04:47:07;99362.91;;;7.24;100.00
39443;BME280;25147;52.142;9.960;2024-03-02T04:49:34;99340.63;;;7.11;100.00
39443;BME280;25147;52.142;9.960;2024-03-02T04:52:01;99387.88;;;7.34;100.00
39443;BME280;25147;52.142;9.960;2024-03-02T04:54:28;99338.09;;;7.06;100.00
39443;BME280;25147;52.142;9.960;2024-03-02T04:56:56;99304.75;;;6.81;100.00
39443;BME280;25147;52.142;9.960;2024-03-02T04:59:23;99341.69;;;7.00;100.00
39443;BME280;25147;52.142;9.960;2024-03-02T05:01:49;99401.19;;;7.19;100.00
39443;BME280;25147;52.142;9.960;2024-03-02T05:04:16;99290.47;;;6.57;100.00
39443;BME280;25147;52.142;9.960;2024-03-02T05:06:43;99313.59;;;6.73;100.00
39443;BME280;25147;52.142;9.960;2024-03-02T05:09:16;99364.31;;;6.95;100.00
39443;BME280;25147;52.142;9.960;2024-03-02T05:11:42;99374.63;;;7.01;100.00
39443;BME280;25147;52.142;9.960;2024-03-02T05:14:26;99386.66;;;7.07;100.00
39443;BME280;25147;52.142;9.960;2024-03-02T05:16:54;99282.72;;;6.54;100.00
39443;BME280;25147;52.142;9.960;2024-03-02T05:19:21;99373.63;;;7.09;100.00
39443;BME280;25147;52.142;9.960;2024-03-02T05:21:47;99331.53;;;6.88;100.00
39443;BME280;25147;52.142;9.960;2024-03-02T05:24:15;99370.25;;;7.03;100.00
39443;BME280;25147;52.142;9.960;2024-03-02T05:26:42;99321.41;;;6.71;100.00
39443;BME280;25147;52.142;9.960;2024-03-02T05:29:09;99320.56;;;6.71;100.00
39443;BME280;25147;52.142;9.960;2024-03-02T05:31:36;99366.78;;;7.05;100.00
39443;BME280;25147;52.142;9.960;2024-03-02T05:34:02;99341.84;;;6.91;100.00
39443;BME280;25147;52.142;9.960;2024-03-02T05:36:30;99360.75;;;7.01;100.00
39443;BME280;25147;52.142;9.960;2024-03-02T05:38:57;99360.75;;;7.01;100.00
39443;BME280;25147;52.142;9.960;2024-03-02T05:41:24;99326.44;;;6.82;100.00
39443;BME280;25147;52.142;9.960;2024-03-02T05:43:51;99352.97;;;6.99;100.00
39443;BME280;25147;52.142;9.960;2024-03-02T05:46:18;99375.34;;;7.08;100.00
39443;BME280;25147;52.142;9.960;2024-03-02T05:48:46;99280.13;;;6.54;100.00
39443;BME280;25147;52.142;9.960;2024-03-02T05:51:12;99365.81;;;7.09;100.00
39443;BME280;25147;52.142;9.960;2024-03-02T05:53:39;99366.72;;;7.06;100.00
39443;BME280;25147;52.142;9.960;2024-03-02T05:56:06;99363.47;;;6.96;100.00
39443;BME280;25147;52.142;9.960;2024-03-02T05:58:33;99387.63;;;7.01;100.00
39443;BME280;25147;52.142;9.960;2024-03-02T06:01:13;99373.94;;;6.92;100.00
39443;BME280;25147;52.142;9.960;2024-03-02T06:03:40;99371.25;;;6.96;100.00
39443;BME280;25147;52.142;9.960;2024-03-02T06:06:08;99362.66;;;6.91;100.00
39443;BME280;25147;52.142;9.960;2024-03-02T06:08:35;99390.91;;;7.13;100.00
39443;BME280;25147;52.142;9.960;2024-03-02T06:11:02;99395.22;;;7.14;100.00
39443;BME280;25147;52.142;9.960;2024-03-02T06:13:29;99375.59;;;6.96;100.00
39443;BME280;25147;52.142;9.960;2024-03-02T06:15:56;99406.44;;;7.16;100.00
39443;BME280;25147;52.142;9.960;2024-03-02T06:18:23;99360.16;;;6.87;100.00
39443;BME280;25147;52.142;9.960;2024-03-02T06:20:50;99314.72;;;6.59;100.00
39443;BME280;25147;52.142;9.960;2024-03-02T06:23:18;99376.47;;;6.95;100.00
39443;BME280;25147;52.142;9.960;2024-03-02T06:25:48;99396.22;;;7.07;100.00
39443;BME280;25147;52.142;9.960;2024-03-02T06:28:15;99390.31;;;6.98;100.00
39443;BME280;25147;52.142;9.960;2024-03-02T06:30:42;99410.81;;;7.14;100.00
39443;BME280;25147;52.142;9.960;2024-03-02T06:33:09;99413.44;;;7.14;100.00
39443;BME280;25147;52.142;9.960;2024-03-02T06:35:35;99409.16;;;7.11;100.00
39443;BME280;25147;52.142;9.960;2024-03-02T06:38:02;99382.72;;;6.86;100.00
39443;BME280;25147;52.142;9.960;2024-03-02T06:40:30;99198.34;;;5.73;100.00
39443;BME280;25147;52.142;9.960;2024-03-02T06:42:57;99418.72;;;7.11;100.00
39443;BME280;25147;52.142;9.960;2024-03-02T06:45:24;99430.81;;;7.12;100.00
39443;BME280;25147;52.142;9.960;2024-03-02T06:47:51;99351.97;;;6.60;100.00
39443;BME280;25147;52.142;9.960;2024-03-02T06:50:17;99297.91;;;6.29;100.00
39443;BME280;25147;52.142;9.960;2024-03-02T06:52:44;99432.47;;;7.16;100.00
39443;BME280;25147;52.142;9.960;2024-03-02T06:55:11;99429.13;;;7.09;100.00
39443;BME280;25147;52.142;9.960;2024-03-02T06:57:39;99392.00;;;6.99;100.00
39443;BME280;25147;52.142;9.960;2024-03-02T07:00:07;99432.38;;;7.20;100.00
39443;BME280;25147;52.142;9.960;2024-03-02T07:02:34;99425.38;;;7.24;100.00
39443;BME280;25147;52.142;9.960;2024-03-02T07:05:03;99421.91;;;7.25;100.00
39443;BME280;25147;52.142;9.960;2024-03-02T07:07:30;99417.63;;;7.22;100.00
39443;BME280;25147;52.142;9.960;2024-03-02T07:09:57;99421.06;;;7.25;100.00
39443;BME280;25147;52.142;9.960;2024-03-02T07:12:24;99445.16;;;7.34;100.00
39443;BME280;25147;52.142;9.960;2024-03-02T07:14:52;99439.06;;;7.37;100.00
39443;BME280;25147;52.142;9.960;2024-03-02T07:17:50;99406.34;;;7.20;100.00
39443;BME280;25147;52.142;9.960;2024-03-02T07:20:17;99432.09;;;7.37;100.00
39443;BME280;25147;52.142;9.960;2024-03-02T07:22:44;99453.63;;;7.46;100.00
39443;BME280;25147;52.142;9.960;2024-03-02T07:25:11;99282.94;;;6.42;100.00
39443;BME280;25147;52.142;9.960;2024-03-02T07:27:38;99447.50;;;7.48;100.00
39443;BME280;25147;52.142;9.960;2024-03-02T07:30:08;99434.75;;;7.34;100.00
39443;BME280;25147;52.142;9.960;2024-03-02T07:32:34;99406.44;;;7.17;100.00
39443;BME280;25147;52.142;9.960;2024-03-02T07:35:01;99389.25;;;7.09;100.00
39443;BME280;25147;52.142;9.960;2024-03-02T07:37:29;99426.94;;;7.34;100.00
39443;BME280;25147;52.142;9.960;2024-03-02T07:39:56;99432.91;;;7.39;100.00
39443;BME280;25147;52.142;9.960;2024-03-02T07:42:22;99462.19;;;7.52;100.00
39443;BME280;25147;52.142;9.960;2024-03-02T07:44:50;99455.16;;;7.56;100.00
39443;BME280;25147;52.142;9.960;2024-03-02T07:47:18;99462.09;;;7.57;100.00
39443;BME280;25147;52.142;9.960;2024-03-02T07:49:45;99462.03;;;7.60;100.00
39443;BME280;25147;52.142;9.960;2024-03-02T07:52:12;99462.25;;;7.49;100.00
39443;BME280;25147;52.142;9.960;2024-03-02T07:54:39;99478.41;;;7.65;100.00
39443;BME280;25147;52.142;9.960;2024-03-02T07:57:06;99475.03;;;7.61;100.00
39443;BME280;25147;52.142;9.960;2024-03-02T07:59:32;99449.22;;;7.49;100.00
39443;BME280;25147;52.142;9.960;2024-03-02T08:01:59;99476.50;;;7.73;100.00
39443;BME280;25147;52.142;9.960;2024-03-02T08:04:27;99484.94;;;7.88;100.00
39443;BME280;25147;52.142;9.960;2024-03-02T08:06:54;99483.13;;;7.91;100.00
39443;BME280;25147;52.142;9.960;2024-03-02T08:09:21;99490.81;;;7.97;100.00
39443;BME280;25147;52.142;9.960;2024-03-02T08:11:47;99474.41;;;7.94;100.00
39443;BME280;25147;52.142;9.960;2024-03-02T08:14:14;99471.81;;;7.92;100.00
39443;BME280;25147;52.142;9.960;2024-03-02T08:16:41;99487.22;;;8.03;100.00
39443;BME280;25147;52.142;9.960;2024-03-02T08:19:08;99495.59;;;8.17;100.00
39443;BME280;25147;52.142;9.960;2024-03-02T08:21:37;99407.09;;;7.72;100.00
39443;BME280;25147;52.142;9.960;2024-03-02T08:24:05;99467.06;;;8.11;100.00
39443;BME280;25147;52.142;9.960;2024-03-02T08:26:32;99454.97;;;8.09;100.00
39443;BME280;25147;52.142;9.960;2024-03-02T08:28:59;99502.06;;;8.40;100.00
39443;BME280;25147;52.142;9.960;2024-03-02T08:31:27;99487.34;;;8.37;100.00
39443;BME280;25147;52.142;9.960;2024-03-02T08:33:53;99469.16;;;8.34;100.00
39443;BME280;25147;52.142;9.960;2024-03-02T08:36:20;99494.09;;;8.49;100.00
39443;BME280;25147;52.142;9.960;2024-03-02T08:38:49;99488.72;;;8.55;100.00
39443;BME280;25147;52.142;9.960;2024-03-02T08:41:17;99473.00;;;8.58;100.00
39443;BME280;25147;52.142;9.960;2024-03-02T08:43:44;99496.94;;;8.76;100.00
39443;BME280;25147;52.142;9.960;2024-03-02T08:46:10;99472.75;;;8.69;100.00
39443;BME280;25147;52.142;9.960;2024-03-02T08:48:37;99490.63;;;8.86;100.00
39443;BME280;25147;52.142;9.960;2024-03-02T08:51:04;99489.34;;;9.02;100.00
39443;BME280;25147;52.142;9.960;2024-03-02T08:53:33;99501.25;;;9.13;100.00
39443;BME280;25147;52.142;9.960;2024-03-02T08:56:01;99488.34;;;9.08;100.00
39443;BME280;25147;52.142;9.960;2024-03-02T08:58:31;99503.44;;;9.30;100.00
39443;BME280;25147;52.142;9.960;2024-03-02T09:00:58;99499.78;;;9.37;100.00
39443;BME280;25147;52.142;9.960;2024-03-02T09:03:25;99454.22;;;9.14;100.00
39443;BME280;25147;52.142;9.960;2024-03-02T09:05:51;99465.25;;;9.26;100.00
39443;BME280;25147;52.142;9.960;2024-03-02T09:08:18;99499.44;;;9.51;100.00
39443;BME280;25147;52.142;9.960;2024-03-02T09:10:45;99436.78;;;9.16;100.00
39443;BME280;25147;52.142;9.960;2024-03-02T09:13:13;99451.03;;;9.36;100.00
39443;BME280;25147;52.142;9.960;2024-03-02T09:15:41;99500.06;;;9.59;100.00
39443;BME280;25147;52.142;9.960;2024-03-02T09:18:08;99496.41;;;9.64;100.00
39443;BME280;25147;52.142;9.960;2024-03-02T09:20:35;99504.63;;;9.83;100.00
39443;BME280;25147;52.142;9.960;2024-03-02T09:23:02;99490.75;;;9.81;100.00
39443;BME280;25147;52.142;9.960;2024-03-02T09:25:28;99489.88;;;9.81;100.00
39443;BME280;25147;52.142;9.960;2024-03-02T09:27:54;99503.31;;;9.98;100.00
39443;BME280;25147;52.142;9.960;2024-03-02T09:30:23;99516.31;;;10.01;99.91
39443;BME280;25147;52.142;9.960;2024-03-02T09:32:50;99489.53;;;9.93;99.42
39443;BME280;25147;52.142;9.960;2024-03-02T09:35:17;99464.78;;;9.75;99.42
39443;BME280;25147;52.142;9.960;2024-03-02T09:37:43;99478.22;;;9.93;99.33
39443;BME280;25147;52.142;9.960;2024-03-02T09:40:11;99468.03;;;9.83;98.60
39443;BME280;25147;52.142;9.960;2024-03-02T09:42:38;99460.19;;;9.83;98.34
39443;BME280;25147;52.142;9.960;2024-03-02T09:45:06;99500.41;;;10.09;97.66
39443;BME280;25147;52.142;9.960;2024-03-02T09:47:34;99483.31;;;9.97;97.09
39443;BME280;25147;52.142;9.960;2024-03-02T09:50:01;99506.44;;;10.11;97.17
39443;BME280;25147;52.142;9.960;2024-03-02T09:52:29;99520.91;;;10.23;96.92
39443;BME280;25147;52.142;9.960;2024-03-02T09:54:57;99484.69;;;10.09;97.29
39443;BME280;25147;52.142;9.960;2024-03-02T09:57:24;99432.44;;;9.79;96.58
39443;BME280;25147;52.142;9.960;2024-03-02T09:59:50;99456.44;;;9.92;96.38
39443;BME280;25147;52.142;9.960;2024-03-02T10:02:17;99491.25;;;10.24;95.85
39443;BME280;25147;52.142;9.960;2024-03-02T10:04:49;99520.19;;;10.49;94.79
39443;BME280;25147;52.142;9.960;2024-03-02T10:07:16;99474.66;;;10.25;93.92
39443;BME280;25147;52.142;9.960;2024-03-02T10:09:44;99500.47;;;10.37;93.88
39443;BME280;25147;52.142;9.960;2024-03-02T10:12:14;99527.88;;;10.54;94.50
39443;BME280;25147;52.142;9.960;2024-03-02T10:14:41;99530.28;;;10.61;94.49
39443;BME280;25147;52.142;9.960;2024-03-02T10:17:10;99482.34;;;10.31;93.26
39443;BME280;25147;52.142;9.960;2024-03-02T10:19:38;99481.00;;;10.46;92.98
39443;BME280;25147;52.142;9.960;2024-03-02T10:22:08;99533.97;;;10.82;92.74
39443;BME280;25147;52.142;9.960;2024-03-02T10:24:36;99524.47;;;10.80;90.62
39443;BME280;25147;52.142;9.960;2024-03-02T10:27:09;99492.97;;;10.55;90.46
39443;BME280;25147;52.142;9.960;2024-03-02T10:29:37;99518.47;;;10.76;90.48
39443;BME280;25147;52.142;9.960;2024-03-02T10:32:05;99452.34;;;10.43;89.85
39443;BME280;25147;52.142;9.960;2024-03-02T10:34:33;99525.13;;;10.87;90.44
39443;BME280;25147;52.142;9.960;2024-03-02T10:36:59;99532.75;;;10.94;90.42
39443;BME280;25147;52.142;9.960;2024-03-02T10:39:28;99503.75;;;10.72;89.64
39443;BME280;25147;52.142;9.960;2024-03-02T10:41:57;99521.50;;;10.91;89.45
39443;BME280;25147;52.142;9.960;2024-03-02T10:44:25;99487.19;;;10.72;88.47
39443;BME280;25147;52.142;9.960;2024-03-02T10:46:53;99511.38;;;10.80;88.44
39443;BME280;25147;52.142;9.960;2024-03-02T10:49:23;99511.53;;;10.75;89.01
39443;BME280;25147;52.142;9.960;2024-03-02T10:51:50;99485.75;;;10.63;89.75
39443;BME280;25147;52.142;9.960;2024-03-02T10:54:17;99529.31;;;10.92;89.73
39443;BME280;25147;52.142;9.960;2024-03-02T10:56:53;99516.38;;;10.88;90.00
39443;BME280;25147;52.142;9.960;2024-03-02T10:59:26;99523.25;;;10.90;89.83
39443;BME280;25147;52.142;9.960;2024-03-02T11:01:56;99529.13;;;10.98;89.13
39443;BME280;25147;52.142;9.960;2024-03-02T11:04:25;99529.03;;;11.01;88.32
39443;BME280;25147;52.142;9.960;2024-03-02T11:06:56;99532.47;;;11.03;88.09
39443;BME280;25147;52.142;9.960;2024-03-02T11:09:26;99512.75;;;10.92;87.85
39443;BME280;25147;52.142;9.960;2024-03-02T11:12:00;99536.56;;;11.11;87.92
39443;BME280;25147;52.142;9.960;2024-03-02T11:14:30;99523.38;;;11.14;87.72
39443;BME280;25147;52.142;9.960;2024-03-02T11:17:02;99534.66;;;11.16;87.52
39443;BME280;25147;52.142;9.960;2024-03-02T11:19:31;99527.63;;;11.18;87.72
39443;BME280;25147;52.142;9.960;2024-03-02T11:21:58;99534.56;;;11.19;87.19
39443;BME280;25147;52.142;9.960;2024-03-02T11:24:30;99505.19;;;11.09;86.69
39443;BME280;25147;52.142;9.960;2024-03-02T11:27:03;99468.47;;;10.84;86.50
39443;BME280;25147;52.142;9.960;2024-03-02T11:29:43;99495.50;;;11.11;86.84
39443;BME280;25147;52.142;9.960;2024-03-02T11:32:14;99508.34;;;11.19;86.62
39443;BME280;25147;52.142;9.960;2024-03-02T11:34:42;99503.03;;;11.22;85.75
39443;BME280;25147;52.142;9.960;2024-03-02T11:37:12;99396.09;;;10.56;85.85
39443;BME280;25147;52.142;9.960;2024-03-02T11:39:40;99466.91;;;11.05;85.72
39443;BME280;25147;52.142;9.960;2024-03-02T11:42:09;99528.41;;;11.47;85.25
39443;BME280;25147;52.142;9.960;2024-03-02T11:44:36;99526.53;;;11.50;85.36
39443;BME280;25147;52.142;9.960;2024-03-02T11:47:06;99518.59;;;11.52;85.41
39443;BME280;25147;52.142;9.960;2024-03-02T11:49:37;99512.56;;;11.50;84.67
39443;BME280;25147;52.142;9.960;2024-03-02T11:52:07;99494.31;;;11.47;85.10
39443;BME280;25147;52.142;9.960;2024-03-02T11:54:36;99519.25;;;11.58;85.03
39443;BME280;25147;52.142;9.960;2024-03-02T11:57:05;99510.53;;;11.58;84.05
39443;BME280;25147;52.142;9.960;2024-03-02T11:59:34;99509.50;;;11.62;84.13
39443;BME280;25147;52.142;9.960;2024-03-02T12:02:01;99493.06;;;11.58;83.58
39443;BME280;25147;52.142;9.960;2024-03-02T12:04:29;99509.88;;;11.76;83.10
39443;BME280;25147;52.142;9.960;2024-03-02T12:06:58;99448.81;;;11.49;83.45
39443;BME280;25147;52.142;9.960;2024-03-02T12:09:26;99496.72;;;11.78;83.08
39443;BME280;25147;52.142;9.960;2024-03-02T12:12:04;99433.78;;;11.54;82.50
39443;BME280;25147;52.142;9.960;2024-03-02T12:14:31;99497.00;;;11.95;82.24
39443;BME280;25147;52.142;9.960;2024-03-02T12:16:59;99481.56;;;11.86;81.34
39443;BME280;25147;52.142;9.960;2024-03-02T12:19:29;99493.31;;;12.01;81.19
39443;BME280;25147;52.142;9.960;2024-03-02T12:21:57;99499.16;;;12.08;81.00
39443;BME280;25147;52.142;9.960;2024-03-02T12:24:26;99507.72;;;12.13;80.70
39443;BME280;25147;52.142;9.960;2024-03-02T12:26:53;99447.53;;;11.84;80.40
39443;BME280;25147;52.142;9.960;2024-03-02T12:29:20;99491.16;;;12.11;79.82
39443;BME280;25147;52.142;9.960;2024-03-02T12:31:48;99482.44;;;12.10;80.39
39443;BME280;25147;52.142;9.960;2024-03-02T12:34:17;99481.66;;;12.08;80.12
39443;BME280;25147;52.142;9.960;2024-03-02T12:36:48;99478.03;;;12.11;79.63
39443;BME280;25147;52.142;9.960;2024-03-02T12:39:18;99464.44;;;12.01;79.60
39443;BME280;25147;52.142;9.960;2024-03-02T12:41:46;99471.09;;;12.10;78.71
39443;BME280;25147;52.142;9.960;2024-03-02T12:44:13;99475.41;;;12.11;78.75
39443;BME280;25147;52.142;9.960;2024-03-02T12:46:39;99484.78;;;12.18;79.62
39443;BME280;25147;52.142;9.960;2024-03-02T12:49:08;99466.13;;;12.02;79.23
39443;BME280;25147;52.142;9.960;2024-03-02T12:51:40;99451.44;;;11.98;79.13
39443;BME280;25147;52.142;9.960;2024-03-02T12:54:08;99485.78;;;12.15;79.51
39443;BME280;25147;52.142;9.960;2024-03-02T12:56:36;99459.44;;;11.95;79.81
39443;BME280;25147;52.142;9.960;2024-03-02T12:59:03;99399.47;;;11.60;79.48
39443;BME280;25147;52.142;9.960;2024-03-02T13:01:30;99454.41;;;11.89;79.35
39443;BME280;25147;52.142;9.960;2024-03-02T13:03:58;99507.25;;;12.01;79.15